sensor_id;sensor_type;location;lat;lon;timestamp;P1;durP1;ratioP1;P2;durP2;ratioP2
35150;SDS011;55720;51.972;4.624;2023-07-29T00:00:51;3.27;;;1.47;;
35150;SDS011;55720;51.972;4.624;2023-07-29T00:03:16;4.63;;;1.50;;
35150;SDS011;55720;51.972;4.624;2023-07-29T00:05:41;5.18;;;1.60;;
35150;SDS011;55720;51.972;4.624;2023-07-29T00:08:07;1.83;;;1.38;;
35150;SDS011;55720;51.972;4.624;2023-07-29T00:10:32;4.57;;;1.65;;
35150;SDS011;55720;51.972;4.624;2023-07-29T00:12:58;4.15;;;1.45;;
35150;SDS011;55720;51.972;4.624;2023-07-29T00:15:23;7.18;;;1.70;;
35150;SDS011;55720;51.972;4.624;2023-07-29T00:17:48;6.30;;;1.40;;
35150;SDS011;55720;51.972;4.624;2023-07-29T00:20:14;3.95;;;1.50;;
35150;SDS011;55720;51.972;4.624;2023-07-29T00:22:39;4.25;;;1.27;;
35150;SDS011;55720;51.972;4.624;2023-07-29T00:25:05;6.43;;;1.73;;
35150;SDS011;55720;51.972;4.624;2023-07-29T00:27:30;3.38;;;1.40;;
35150;SDS011;55720;51.972;4.624;2023-07-29T00:29:55;4.77;;;1.23;;
35150;SDS011;55720;51.972;4.624;2023-07-29T00:32:20;3.87;;;1.50;;
35150;SDS011;55720;51.972;4.624;2023-07-29T00:34:45;3.37;;;1.70;;
35150;SDS011;55720;51.972;4.624;2023-07-29T00:37:11;5.70;;;1.87;;
35150;SDS011;55720;51.972;4.624;2023-07-29T00:39:37;5.25;;;2.10;;
35150;SDS011;55720;51.972;4.624;2023-07-29T00:42:02;8.52;;;2.22;;
35150;SDS011;55720;51.972;4.624;2023-07-29T00:44:27;3.17;;;2.05;;
35150;SDS011;55720;51.972;4.624;2023-07-29T00:46:53;6.67;;;1.90;;
35150;SDS011;55720;51.972;4.624;2023-07-29T00:49:19;4.95;;;2.50;;
35150;SDS011;55720;51.972;4.624;2023-07-29T00:51:45;4.47;;;2.05;;
35150;SDS011;55720;51.972;4.624;2023-07-29T00:54:11;7.07;;;2.15;;
35150;SDS011;55720;51.972;4.624;2023-07-29T00:56:36;12.55;;;2.50;;
35150;SDS011;55720;51.972;4.624;2023-07-29T00:59:01;10.27;;;2.60;;
35150;SDS011;55720;51.972;4.624;2023-07-29T01:01:30;8.20;;;2.90;;
35150;SDS011;55720;51.972;4.624;2023-07-29T01:03:56;9.23;;;2.95;;
35150;SDS011;55720;51.972;4.624;2023-07-29T01:06:29;7.68;;;3.22;;
35150;SDS011;55720;51.972;4.624;2023-07-29T01:09:02;8.30;;;3.10;;
35150;SDS011;55720;51.972;4.624;2023-07-29T01:14:12;6.80;;;3.10;;
35150;SDS011;55720;51.972;4.624;2023-07-29T01:16:42;5.97;;;2.63;;
35150;SDS011;55720;51.972;4.624;2023-07-29T01:19:08;9.07;;;2.20;;
35150;SDS011;55720;51.972;4.624;2023-07-29T01:21:39;6.28;;;2.00;;
35150;SDS011;55720;51.972;4.624;2023-07-29T01:24:05;2.88;;;1.90;;
35150;SDS011;55720;51.972;4.624;2023-07-29T01:26:30;2.10;;;1.70;;
35150;SDS011;55720;51.972;4.624;2023-07-29T01:28:56;5.63;;;1.47;;
35150;SDS011;55720;51.972;4.624;2023-07-29T01:31:33;3.80;;;1.77;;
35150;SDS011;55720;51.972;4.624;2023-07-29T01:34:00;4.50;;;1.90;;
35150;SDS011;55720;51.972;4.624;2023-07-29T01:36:28;5.72;;;1.35;;
35150;SDS011;55720;51.972;4.624;2023-07-29T01:38:54;4.68;;;1.60;;
35150;SDS011;55720;51.972;4.624;2023-07-29T01:41:21;5.75;;;1.88;;
35150;SDS011;55720;51.972;4.624;2023-07-29T01:43:46;5.70;;;2.22;;
35150;SDS011;55720;51.972;4.624;2023-07-29T01:46:12;3.85;;;2.00;;
35150;SDS011;55720;51.972;4.624;2023-07-29T01:48:37;3.70;;;1.60;;
35150;SDS011;55720;51.972;4.624;2023-07-29T01:51:03;3.67;;;1.50;;
35150;SDS011;55720;51.972;4.624;2023-07-29T01:53:28;4.25;;;1.60;;
35150;SDS011;55720;51.972;4.624;2023-07-29T01:55:53;3.93;;;1.30;;
35150;SDS011;55720;51.972;4.624;2023-07-29T01:58:19;1.87;;;1.60;;
35150;SDS011;55720;51.972;4.624;2023-07-29T02:00:44;3.03;;;1.60;;
35150;SDS011;55720;51.972;4.624;2023-07-29T02:03:09;2.83;;;1.30;;
35150;SDS011;55720;51.972;4.624;2023-07-29T02:05:34;3.67;;;1.58;;
35150;SDS011;55720;51.972;4.624;2023-07-29T02:08:00;4.30;;;1.50;;
35150;SDS011;55720;51.972;4.624;2023-07-29T02:10:25;3.07;;;1.77;;
35150;SDS011;55720;51.972;4.624;2023-07-29T02:12:50;3.27;;;1.60;;
35150;SDS011;55720;51.972;4.624;2023-07-29T02:15:15;4.13;;;1.87;;
35150;SDS011;55720;51.972;4.624;2023-07-29T02:17:41;2.20;;;1.55;;
35150;SDS011;55720;51.972;4.624;2023-07-29T02:20:07;2.28;;;2.00;;
35150;SDS011;55720;51.972;4.624;2023-07-29T02:22:32;1.70;;;1.25;;
35150;SDS011;55720;51.972;4.624;2023-07-29T02:24:57;3.80;;;1.88;;
35150;SDS011;55720;51.972;4.624;2023-07-29T02:27:23;2.73;;;1.43;;
35150;SDS011;55720;51.972;4.624;2023-07-29T02:29:50;2.45;;;1.58;;
35150;SDS011;55720;51.972;4.624;2023-07-29T02:32:15;2.53;;;1.73;;
35150;SDS011;55720;51.972;4.624;2023-07-29T02:34:40;4.47;;;1.53;;
35150;SDS011;55720;51.972;4.624;2023-07-29T02:37:05;4.77;;;1.77;;
35150;SDS011;55720;51.972;4.624;2023-07-29T02:39:31;2.50;;;1.33;;
35150;SDS011;55720;51.972;4.624;2023-07-29T02:41:56;1.75;;;1.42;;
35150;SDS011;55720;51.972;4.624;2023-07-29T02:44:23;4.03;;;1.55;;
35150;SDS011;55720;51.972;4.624;2023-07-29T02:46:48;3.88;;;1.40;;
35150;SDS011;55720;51.972;4.624;2023-07-29T02:49:13;5.10;;;1.40;;
35150;SDS011;55720;51.972;4.624;2023-07-29T02:51:39;2.63;;;1.63;;
35150;SDS011;55720;51.972;4.624;2023-07-29T02:54:04;6.30;;;2.00;;
35150;SDS011;55720;51.972;4.624;2023-07-29T02:56:29;3.17;;;1.70;;
35150;SDS011;55720;51.972;4.624;2023-07-29T02:58:55;2.10;;;1.52;;
35150;SDS011;55720;51.972;4.624;2023-07-29T03:01:21;2.45;;;1.50;;
35150;SDS011;55720;51.972;4.624;2023-07-29T03:03:46;2.87;;;1.40;;
35150;SDS011;55720;51.972;4.624;2023-07-29T03:06:13;3.80;;;1.60;;
35150;SDS011;55720;51.972;4.624;2023-07-29T03:08:38;3.83;;;1.63;;
35150;SDS011;55720;51.972;4.624;2023-07-29T03:11:07;4.25;;;1.75;;
35150;SDS011;55720;51.972;4.624;2023-07-29T03:13:32;2.05;;;1.85;;
35150;SDS011;55720;51.972;4.624;2023-07-29T03:16:04;1.40;;;1.30;;
35150;SDS011;55720;51.972;4.624;2023-07-29T03:18:29;4.40;;;1.60;;
35150;SDS011;55720;51.972;4.624;2023-07-29T03:20:55;2.60;;;1.57;;
35150;SDS011;55720;51.972;4.624;2023-07-29T03:23:20;3.15;;;1.67;;
35150;SDS011;55720;51.972;4.624;2023-07-29T03:25:47;4.88;;;1.85;;
35150;SDS011;55720;51.972;4.624;2023-07-29T03:28:13;2.75;;;1.77;;
35150;SDS011;55720;51.972;4.624;2023-07-29T03:30:38;3.77;;;1.70;;
35150;SDS011;55720;51.972;4.624;2023-07-29T03:33:03;1.70;;;1.37;;
35150;SDS011;55720;51.972;4.624;2023-07-29T03:35:29;2.85;;;2.10;;
35150;SDS011;55720;51.972;4.624;2023-07-29T03:37:54;2.83;;;1.70;;
35150;SDS011;55720;51.972;4.624;2023-07-29T03:40:19;6.50;;;1.70;;
35150;SDS011;55720;51.972;4.624;2023-07-29T03:42:45;4.67;;;2.00;;
35150;SDS011;55720;51.972;4.624;2023-07-29T03:45:10;5.10;;;2.00;;
35150;SDS011;55720;51.972;4.624;2023-07-29T03:47:35;2.33;;;1.43;;
35150;SDS011;55720;51.972;4.624;2023-07-29T03:50:00;1.97;;;1.60;;
35150;SDS011;55720;51.972;4.624;2023-07-29T03:52:25;5.77;;;1.90;;
35150;SDS011;55720;51.972;4.624;2023-07-29T03:54:51;6.37;;;2.10;;
35150;SDS011;55720;51.972;4.624;2023-07-29T03:57:16;3.70;;;2.00;;
35150;SDS011;55720;51.972;4.624;2023-07-29T03:59:41;4.93;;;1.80;;
35150;SDS011;55720;51.972;4.624;2023-07-29T04:02:06;3.33;;;2.00;;
35150;SDS011;55720;51.972;4.624;2023-07-29T04:04:31;4.27;;;2.10;;
35150;SDS011;55720;51.972;4.624;2023-07-29T04:06:57;4.33;;;2.27;;
35150;SDS011;55720;51.972;4.624;2023-07-29T04:09:22;4.82;;;1.90;;
35150;SDS011;55720;51.972;4.624;2023-07-29T04:11:48;4.43;;;2.70;;
35150;SDS011;55720;51.972;4.624;2023-07-29T04:14:13;5.28;;;2.20;;
35150;SDS011;55720;51.972;4.624;2023-07-29T04:16:38;10.03;;;2.80;;
35150;SDS011;55720;51.972;4.624;2023-07-29T04:19:03;3.93;;;2.47;;
35150;SDS011;55720;51.972;4.624;2023-07-29T04:21:29;9.20;;;2.83;;
35150;SDS011;55720;51.972;4.624;2023-07-29T04:23:54;6.20;;;2.87;;
35150;SDS011;55720;51.972;4.624;2023-07-29T04:26:19;6.13;;;2.30;;
35150;SDS011;55720;51.972;4.624;2023-07-29T04:28:44;6.88;;;2.88;;
35150;SDS011;55720;51.972;4.624;2023-07-29T04:31:10;12.27;;;3.20;;
35150;SDS011;55720;51.972;4.624;2023-07-29T04:33:35;6.35;;;2.47;;
35150;SDS011;55720;51.972;4.624;2023-07-29T04:36:00;4.03;;;2.50;;
35150;SDS011;55720;51.972;4.624;2023-07-29T04:38:30;9.47;;;3.40;;
35150;SDS011;55720;51.972;4.624;2023-07-29T04:40:56;5.47;;;3.53;;
35150;SDS011;55720;51.972;4.624;2023-07-29T04:43:21;5.57;;;3.03;;
35150;SDS011;55720;51.972;4.624;2023-07-29T04:45:46;4.97;;;3.40;;
35150;SDS011;55720;51.972;4.624;2023-07-29T04:48:11;7.57;;;3.83;;
35150;SDS011;55720;51.972;4.624;2023-07-29T04:50:37;7.47;;;2.87;;
35150;SDS011;55720;51.972;4.624;2023-07-29T04:53:02;8.50;;;3.57;;
35150;SDS011;55720;51.972;4.624;2023-07-29T04:55:27;4.30;;;3.03;;
35150;SDS011;55720;51.972;4.624;2023-07-29T04:57:52;4.20;;;3.45;;
35150;SDS011;55720;51.972;4.624;2023-07-29T05:00:18;7.37;;;3.30;;
35150;SDS011;55720;51.972;4.624;2023-07-29T05:02:43;6.10;;;3.63;;
35150;SDS011;55720;51.972;4.624;2023-07-29T05:05:08;3.80;;;3.30;;
35150;SDS011;55720;51.972;4.624;2023-07-29T05:07:33;6.82;;;3.78;;
35150;SDS011;55720;51.972;4.624;2023-07-29T05:09:59;5.75;;;3.58;;
35150;SDS011;55720;51.972;4.624;2023-07-29T05:12:24;7.22;;;3.63;;
35150;SDS011;55720;51.972;4.624;2023-07-29T05:14:49;7.53;;;4.03;;
35150;SDS011;55720;51.972;4.624;2023-07-29T05:17:14;5.00;;;3.30;;
35150;SDS011;55720;51.972;4.624;2023-07-29T05:19:40;8.55;;;3.35;;
35150;SDS011;55720;51.972;4.624;2023-07-29T05:22:05;6.20;;;3.63;;
35150;SDS011;55720;51.972;4.624;2023-07-29T05:24:30;7.20;;;3.78;;
35150;SDS011;55720;51.972;4.624;2023-07-29T05:26:55;4.72;;;3.30;;
35150;SDS011;55720;51.972;4.624;2023-07-29T05:29:21;7.00;;;3.43;;
35150;SDS011;55720;51.972;4.624;2023-07-29T05:31:46;3.77;;;3.30;;
35150;SDS011;55720;51.972;4.624;2023-07-29T05:34:11;6.47;;;3.37;;
35150;SDS011;55720;51.972;4.624;2023-07-29T05:36:36;6.17;;;3.47;;
35150;SDS011;55720;51.972;4.624;2023-07-29T05:39:01;7.87;;;3.13;;
35150;SDS011;55720;51.972;4.624;2023-07-29T05:41:27;4.47;;;3.00;;
35150;SDS011;55720;51.972;4.624;2023-07-29T05:43:53;6.55;;;3.30;;
35150;SDS011;55720;51.972;4.624;2023-07-29T05:46:19;7.20;;;3.33;;
35150;SDS011;55720;51.972;4.624;2023-07-29T05:48:44;9.10;;;3.53;;
35150;SDS011;55720;51.972;4.624;2023-07-29T05:51:09;7.00;;;3.63;;
35150;SDS011;55720;51.972;4.624;2023-07-29T05:53:34;7.33;;;3.60;;
35150;SDS011;55720;51.972;4.624;2023-07-29T05:56:00;4.93;;;3.30;;
35150;SDS011;55720;51.972;4.624;2023-07-29T05:58:25;5.17;;;3.27;;
35150;SDS011;55720;51.972;4.624;2023-07-29T06:00:50;9.50;;;3.13;;
35150;SDS011;55720;51.972;4.624;2023-07-29T06:03:16;5.80;;;3.20;;
35150;SDS011;55720;51.972;4.624;2023-07-29T06:05:41;5.57;;;2.97;;
35150;SDS011;55720;51.972;4.624;2023-07-29T06:08:06;7.90;;;3.10;;
35150;SDS011;55720;51.972;4.624;2023-07-29T06:10:33;12.43;;;3.10;;
35150;SDS011;55720;51.972;4.624;2023-07-29T06:12:58;10.18;;;3.45;;
35150;SDS011;55720;51.972;4.624;2023-07-29T06:15:24;6.23;;;3.10;;
35150;SDS011;55720;51.972;4.624;2023-07-29T06:17:49;9.87;;;3.03;;
35150;SDS011;55720;51.972;4.624;2023-07-29T06:20:14;7.00;;;3.10;;
35150;SDS011;55720;51.972;4.624;2023-07-29T06:22:40;6.43;;;3.17;;
35150;SDS011;55720;51.972;4.624;2023-07-29T06:25:06;7.28;;;2.95;;
35150;SDS011;55720;51.972;4.624;2023-07-29T06:27:31;5.35;;;2.80;;
35150;SDS011;55720;51.972;4.624;2023-07-29T06:29:56;7.83;;;2.90;;
35150;SDS011;55720;51.972;4.624;2023-07-29T06:32:21;2.63;;;2.20;;
35150;SDS011;55720;51.972;4.624;2023-07-29T06:34:47;6.90;;;3.00;;
35150;SDS011;55720;51.972;4.624;2023-07-29T06:37:12;4.43;;;2.40;;
35150;SDS011;55720;51.972;4.624;2023-07-29T06:39:37;4.73;;;2.73;;
35150;SDS011;55720;51.972;4.624;2023-07-29T06:42:02;3.57;;;2.13;;
35150;SDS011;55720;51.972;4.624;2023-07-29T06:44:28;6.63;;;2.40;;
35150;SDS011;55720;51.972;4.624;2023-07-29T06:46:53;4.97;;;1.90;;
35150;SDS011;55720;51.972;4.624;2023-07-29T06:49:18;3.97;;;2.08;;
35150;SDS011;55720;51.972;4.624;2023-07-29T06:51:43;6.00;;;1.40;;
35150;SDS011;55720;51.972;4.624;2023-07-29T06:54:09;3.88;;;1.73;;
35150;SDS011;55720;51.972;4.624;2023-07-29T06:56:34;4.77;;;1.83;;
35150;SDS011;55720;51.972;4.624;2023-07-29T06:58:59;3.83;;;1.98;;
35150;SDS011;55720;51.972;4.624;2023-07-29T07:01:24;5.83;;;1.90;;
35150;SDS011;55720;51.972;4.624;2023-07-29T07:03:50;3.37;;;1.70;;
35150;SDS011;55720;51.972;4.624;2023-07-29T07:06:15;4.20;;;1.98;;
35150;SDS011;55720;51.972;4.624;2023-07-29T07:08:40;2.85;;;1.50;;
35150;SDS011;55720;51.972;4.624;2023-07-29T07:11:06;3.70;;;1.70;;
35150;SDS011;55720;51.972;4.624;2023-07-29T07:13:32;5.03;;;1.63;;
35150;SDS011;55720;51.972;4.624;2023-07-29T07:15:57;2.55;;;1.60;;
35150;SDS011;55720;51.972;4.624;2023-07-29T07:18:22;2.05;;;1.33;;
35150;SDS011;55720;51.972;4.624;2023-07-29T07:20:48;8.90;;;1.75;;
35150;SDS011;55720;51.972;4.624;2023-07-29T07:23:14;4.18;;;1.70;;
35150;SDS011;55720;51.972;4.624;2023-07-29T07:25:40;2.85;;;1.45;;
35150;SDS011;55720;51.972;4.624;2023-07-29T07:28:07;3.55;;;1.80;;
35150;SDS011;55720;51.972;4.624;2023-07-29T07:30:32;2.80;;;1.80;;
35150;SDS011;55720;51.972;4.624;2023-07-29T07:32:57;3.10;;;1.67;;
35150;SDS011;55720;51.972;4.624;2023-07-29T07:35:22;3.10;;;1.73;;
35150;SDS011;55720;51.972;4.624;2023-07-29T07:37:48;2.87;;;1.80;;
35150;SDS011;55720;51.972;4.624;2023-07-29T07:40:13;2.67;;;1.97;;
35150;SDS011;55720;51.972;4.624;2023-07-29T07:42:38;2.15;;;1.95;;
35150;SDS011;55720;51.972;4.624;2023-07-29T07:45:04;2.07;;;1.70;;
35150;SDS011;55720;51.972;4.624;2023-07-29T07:47:29;3.75;;;2.08;;
35150;SDS011;55720;51.972;4.624;2023-07-29T07:49:54;5.57;;;2.07;;
35150;SDS011;55720;51.972;4.624;2023-07-29T07:52:19;3.47;;;1.83;;
35150;SDS011;55720;51.972;4.624;2023-07-29T07:54:44;2.47;;;1.53;;
35150;SDS011;55720;51.972;4.624;2023-07-29T07:57:10;2.20;;;1.30;;
35150;SDS011;55720;51.972;4.624;2023-07-29T07:59:35;3.90;;;1.80;;
35150;SDS011;55720;51.972;4.624;2023-07-29T08:02:00;3.00;;;1.47;;
35150;SDS011;55720;51.972;4.624;2023-07-29T08:04:25;3.87;;;1.40;;
35150;SDS011;55720;51.972;4.624;2023-07-29T08:06:51;3.43;;;1.43;;
35150;SDS011;55720;51.972;4.624;2023-07-29T08:09:16;3.13;;;1.10;;
35150;SDS011;55720;51.972;4.624;2023-07-29T08:11:41;2.37;;;1.37;;
35150;SDS011;55720;51.972;4.624;2023-07-29T08:14:06;2.07;;;1.40;;
35150;SDS011;55720;51.972;4.624;2023-07-29T08:16:31;2.33;;;1.57;;
35150;SDS011;55720;51.972;4.624;2023-07-29T08:18:57;2.72;;;1.70;;
35150;SDS011;55720;51.972;4.624;2023-07-29T08:21:22;2.67;;;1.53;;
35150;SDS011;55720;51.972;4.624;2023-07-29T08:23:47;1.57;;;1.33;;
35150;SDS011;55720;51.972;4.624;2023-07-29T08:26:12;1.63;;;1.40;;
35150;SDS011;55720;51.972;4.624;2023-07-29T08:28:38;3.37;;;1.77;;
35150;SDS011;55720;51.972;4.624;2023-07-29T08:31:04;10.25;;;1.80;;
35150;SDS011;55720;51.972;4.624;2023-07-29T08:33:29;4.20;;;1.90;;
35150;SDS011;55720;51.972;4.624;2023-07-29T08:35:55;4.50;;;1.90;;
35150;SDS011;55720;51.972;4.624;2023-07-29T08:38:20;5.72;;;2.30;;
35150;SDS011;55720;51.972;4.624;2023-07-29T08:40:49;2.40;;;2.10;;
35150;SDS011;55720;51.972;4.624;2023-07-29T08:43:16;2.30;;;2.10;;
35150;SDS011;55720;51.972;4.624;2023-07-29T08:45:43;2.97;;;2.60;;
35150;SDS011;55720;51.972;4.624;2023-07-29T08:48:09;4.13;;;2.83;;
35150;SDS011;55720;51.972;4.624;2023-07-29T08:50:35;4.70;;;2.95;;
35150;SDS011;55720;51.972;4.624;2023-07-29T08:53:01;5.03;;;3.22;;
35150;SDS011;55720;51.972;4.624;2023-07-29T08:55:27;6.78;;;2.97;;
35150;SDS011;55720;51.972;4.624;2023-07-29T08:57:52;4.63;;;2.60;;
35150;SDS011;55720;51.972;4.624;2023-07-29T09:00:18;6.72;;;2.38;;
35150;SDS011;55720;51.972;4.624;2023-07-29T09:02:44;3.83;;;2.50;;
35150;SDS011;55720;51.972;4.624;2023-07-29T09:05:09;3.30;;;2.37;;
35150;SDS011;55720;51.972;4.624;2023-07-29T09:07:34;2.42;;;2.05;;
35150;SDS011;55720;51.972;4.624;2023-07-29T09:10:01;7.63;;;2.63;;
35150;SDS011;55720;51.972;4.624;2023-07-29T09:12:26;5.85;;;1.90;;
35150;SDS011;55720;51.972;4.624;2023-07-29T09:14:52;2.78;;;2.13;;
35150;SDS011;55720;51.972;4.624;2023-07-29T09:17:18;3.08;;;2.00;;
35150;SDS011;55720;51.972;4.624;2023-07-29T09:19:46;6.93;;;2.40;;
35150;SDS011;55720;51.972;4.624;2023-07-29T09:22:18;2.35;;;2.15;;
35150;SDS011;55720;51.972;4.624;2023-07-29T09:24:45;2.22;;;2.05;;
35150;SDS011;55720;51.972;4.624;2023-07-29T09:27:10;4.68;;;2.40;;
35150;SDS011;55720;51.972;4.624;2023-07-29T09:29:48;2.75;;;2.25;;
35150;SDS011;55720;51.972;4.624;2023-07-29T09:32:20;2.60;;;2.00;;
35150;SDS011;55720;51.972;4.624;2023-07-29T09:34:45;2.83;;;2.33;;
35150;SDS011;55720;51.972;4.624;2023-07-29T09:37:15;3.47;;;2.60;;
35150;SDS011;55720;51.972;4.624;2023-07-29T09:39:43;4.85;;;2.58;;
35150;SDS011;55720;51.972;4.624;2023-07-29T09:42:11;3.75;;;2.53;;
35150;SDS011;55720;51.972;4.624;2023-07-29T09:44:36;2.80;;;2.60;;
35150;SDS011;55720;51.972;4.624;2023-07-29T09:47:01;3.22;;;2.40;;
35150;SDS011;55720;51.972;4.624;2023-07-29T09:49:26;2.43;;;2.23;;
35150;SDS011;55720;51.972;4.624;2023-07-29T09:51:55;2.17;;;1.97;;
35150;SDS011;55720;51.972;4.624;2023-07-29T09:54:20;2.38;;;1.77;;
35150;SDS011;55720;51.972;4.624;2023-07-29T09:56:45;2.55;;;1.63;;
35150;SDS011;55720;51.972;4.624;2023-07-29T09:59:12;2.38;;;1.50;;
35150;SDS011;55720;51.972;4.624;2023-07-29T10:01:37;2.40;;;1.63;;
35150;SDS011;55720;51.972;4.624;2023-07-29T10:04:03;1.77;;;1.30;;
35150;SDS011;55720;51.972;4.624;2023-07-29T10:06:28;1.83;;;1.27;;
35150;SDS011;55720;51.972;4.624;2023-07-29T10:08:53;1.87;;;1.07;;
35150;SDS011;55720;51.972;4.624;2023-07-29T10:11:20;1.95;;;0.80;;
35150;SDS011;55720;51.972;4.624;2023-07-29T10:13:46;1.40;;;0.80;;
35150;SDS011;55720;51.972;4.624;2023-07-29T10:16:11;1.05;;;0.57;;
35150;SDS011;55720;51.972;4.624;2023-07-29T10:18:37;1.27;;;0.47;;
35150;SDS011;55720;51.972;4.624;2023-07-29T10:21:02;0.50;;;0.50;;
35150;SDS011;55720;51.972;4.624;2023-07-29T10:23:34;1.48;;;0.50;;
35150;SDS011;55720;51.972;4.624;2023-07-29T10:26:03;1.15;;;0.40;;
35150;SDS011;55720;51.972;4.624;2023-07-29T10:28:29;0.95;;;0.52;;
35150;SDS011;55720;51.972;4.624;2023-07-29T10:30:54;1.60;;;0.50;;
35150;SDS011;55720;51.972;4.624;2023-07-29T10:33:21;1.80;;;0.60;;
35150;SDS011;55720;51.972;4.624;2023-07-29T10:35:46;1.55;;;0.70;;
35150;SDS011;55720;51.972;4.624;2023-07-29T10:38:11;3.45;;;0.65;;
35150;SDS011;55720;51.972;4.624;2023-07-29T10:40:43;1.00;;;0.60;;
35150;SDS011;55720;51.972;4.624;2023-07-29T10:43:10;1.83;;;0.73;;
35150;SDS011;55720;51.972;4.624;2023-07-29T10:45:36;5.25;;;0.70;;
35150;SDS011;55720;51.972;4.624;2023-07-29T10:48:05;3.42;;;0.70;;
35150;SDS011;55720;51.972;4.624;2023-07-29T10:50:31;3.78;;;1.10;;
35150;SDS011;55720;51.972;4.624;2023-07-29T10:52:56;3.00;;;1.20;;
35150;SDS011;55720;51.972;4.624;2023-07-29T10:55:29;1.30;;;1.17;;
35150;SDS011;55720;51.972;4.624;2023-07-29T11:00:50;1.33;;;1.23;;
35150;SDS011;55720;51.972;4.624;2023-07-29T11:03:15;2.27;;;1.47;;
35150;SDS011;55720;51.972;4.624;2023-07-29T11:05:47;3.13;;;1.40;;
35150;SDS011;55720;51.972;4.624;2023-07-29T11:10:43;2.60;;;1.33;;
35150;SDS011;55720;51.972;4.624;2023-07-29T11:13:09;3.88;;;1.17;;
35150;SDS011;55720;51.972;4.624;2023-07-29T11:15:36;1.92;;;1.38;;
35150;SDS011;55720;51.972;4.624;2023-07-29T11:18:03;1.83;;;1.40;;
35150;SDS011;55720;51.972;4.624;2023-07-29T11:20:30;1.50;;;1.40;;
35150;SDS011;55720;51.972;4.624;2023-07-29T11:22:57;1.90;;;1.27;;
35150;SDS011;55720;51.972;4.624;2023-07-29T11:25:23;1.50;;;1.27;;
35150;SDS011;55720;51.972;4.624;2023-07-29T11:27:49;1.48;;;1.30;;
35150;SDS011;55720;51.972;4.624;2023-07-29T11:30:14;2.17;;;1.30;;
35150;SDS011;55720;51.972;4.624;2023-07-29T11:32:40;1.35;;;1.10;;
35150;SDS011;55720;51.972;4.624;2023-07-29T11:35:13;1.52;;;1.00;;
35150;SDS011;55720;51.972;4.624;2023-07-29T11:37:39;1.75;;;0.93;;
35150;SDS011;55720;51.972;4.624;2023-07-29T11:40:05;1.10;;;0.90;;
35150;SDS011;55720;51.972;4.624;2023-07-29T11:42:32;1.05;;;0.65;;
35150;SDS011;55720;51.972;4.624;2023-07-29T11:44:58;1.60;;;0.80;;
35150;SDS011;55720;51.972;4.624;2023-07-29T11:47:24;1.67;;;0.90;;
35150;SDS011;55720;51.972;4.624;2023-07-29T11:49:49;2.28;;;1.27;;
35150;SDS011;55720;51.972;4.624;2023-07-29T11:52:14;0.70;;;0.70;;
35150;SDS011;55720;51.972;4.624;2023-07-29T11:54:43;2.08;;;1.10;;
35150;SDS011;55720;51.972;4.624;2023-07-29T11:57:09;1.35;;;1.05;;
35150;SDS011;55720;51.972;4.624;2023-07-29T11:59:35;1.20;;;1.10;;
35150;SDS011;55720;51.972;4.624;2023-07-29T12:02:00;1.90;;;1.30;;
35150;SDS011;55720;51.972;4.624;2023-07-29T12:04:26;1.48;;;1.35;;
35150;SDS011;55720;51.972;4.624;2023-07-29T12:06:52;1.73;;;1.63;;
35150;SDS011;55720;51.972;4.624;2023-07-29T12:09:17;2.00;;;1.90;;
35150;SDS011;55720;51.972;4.624;2023-07-29T12:11:42;1.83;;;1.60;;
35150;SDS011;55720;51.972;4.624;2023-07-29T12:14:08;3.05;;;2.03;;
35150;SDS011;55720;51.972;4.624;2023-07-29T12:16:40;2.33;;;1.60;;
35150;SDS011;55720;51.972;4.624;2023-07-29T12:19:05;2.28;;;1.67;;
35150;SDS011;55720;51.972;4.624;2023-07-29T12:21:30;2.07;;;1.70;;
35150;SDS011;55720;51.972;4.624;2023-07-29T12:23:56;3.07;;;1.63;;
35150;SDS011;55720;51.972;4.624;2023-07-29T12:26:21;1.90;;;1.70;;
35150;SDS011;55720;51.972;4.624;2023-07-29T12:28:51;2.15;;;1.38;;
35150;SDS011;55720;51.972;4.624;2023-07-29T12:31:17;5.47;;;1.40;;
35150;SDS011;55720;51.972;4.624;2023-07-29T12:33:42;1.47;;;1.30;;
35150;SDS011;55720;51.972;4.624;2023-07-29T12:36:07;2.30;;;1.50;;
35150;SDS011;55720;51.972;4.624;2023-07-29T12:38:33;1.70;;;1.35;;
35150;SDS011;55720;51.972;4.624;2023-07-29T12:40:58;1.80;;;1.70;;
35150;SDS011;55720;51.972;4.624;2023-07-29T12:43:24;1.97;;;1.67;;
35150;SDS011;55720;51.972;4.624;2023-07-29T12:45:49;2.15;;;1.95;;
35150;SDS011;55720;51.972;4.624;2023-07-29T12:48:15;3.05;;;1.60;;
35150;SDS011;55720;51.972;4.624;2023-07-29T12:50:40;2.20;;;1.10;;
35150;SDS011;55720;51.972;4.624;2023-07-29T12:53:06;1.15;;;0.90;;
35150;SDS011;55720;51.972;4.624;2023-07-29T12:55:31;1.00;;;0.90;;
35150;SDS011;55720;51.972;4.624;2023-07-29T12:57:57;3.03;;;0.70;;
35150;SDS011;55720;51.972;4.624;2023-07-29T13:00:24;0.95;;;0.75;;
35150;SDS011;55720;51.972;4.624;2023-07-29T13:02:49;0.75;;;0.70;;
35150;SDS011;55720;51.972;4.624;2023-07-29T13:05:14;1.83;;;0.67;;
35150;SDS011;55720;51.972;4.624;2023-07-29T13:07:39;2.30;;;0.67;;
35150;SDS011;55720;51.972;4.624;2023-07-29T13:10:05;1.20;;;0.93;;
35150;SDS011;55720;51.972;4.624;2023-07-29T13:12:30;5.03;;;1.05;;
35150;SDS011;55720;51.972;4.624;2023-07-29T13:14:56;2.65;;;0.90;;
35150;SDS011;55720;51.972;4.624;2023-07-29T13:17:21;3.03;;;0.90;;
35150;SDS011;55720;51.972;4.624;2023-07-29T13:19:47;1.88;;;0.75;;
35150;SDS011;55720;51.972;4.624;2023-07-29T13:22:12;1.15;;;0.90;;
35150;SDS011;55720;51.972;4.624;2023-07-29T13:24:37;3.90;;;0.70;;
35150;SDS011;55720;51.972;4.624;2023-07-29T13:27:02;1.40;;;0.90;;
35150;SDS011;55720;51.972;4.624;2023-07-29T13:29:28;2.38;;;0.90;;
35150;SDS011;55720;51.972;4.624;2023-07-29T13:31:53;2.40;;;0.70;;
35150;SDS011;55720;51.972;4.624;2023-07-29T13:34:18;2.05;;;0.93;;
35150;SDS011;55720;51.972;4.624;2023-07-29T13:36:43;2.03;;;0.87;;
35150;SDS011;55720;51.972;4.624;2023-07-29T13:39:09;0.83;;;0.70;;
35150;SDS011;55720;51.972;4.624;2023-07-29T13:41:34;1.97;;;0.97;;
35150;SDS011;55720;51.972;4.624;2023-07-29T13:43:59;2.27;;;0.70;;
35150;SDS011;55720;51.972;4.624;2023-07-29T13:46:24;3.77;;;0.80;;
35150;SDS011;55720;51.972;4.624;2023-07-29T13:48:49;0.50;;;0.50;;
35150;SDS011;55720;51.972;4.624;2023-07-29T13:51:15;1.43;;;0.80;;
35150;SDS011;55720;51.972;4.624;2023-07-29T13:53:40;1.27;;;0.63;;
35150;SDS011;55720;51.972;4.624;2023-07-29T13:56:05;1.27;;;0.73;;
35150;SDS011;55720;51.972;4.624;2023-07-29T13:58:30;1.67;;;0.70;;
35150;SDS011;55720;51.972;4.624;2023-07-29T14:00:55;0.77;;;0.60;;
35150;SDS011;55720;51.972;4.624;2023-07-29T14:03:21;1.30;;;0.55;;
35150;SDS011;55720;51.972;4.624;2023-07-29T14:05:46;1.45;;;0.68;;
35150;SDS011;55720;51.972;4.624;2023-07-29T14:08:11;2.13;;;0.70;;
35150;SDS011;55720;51.972;4.624;2023-07-29T14:10:36;1.20;;;0.70;;
35150;SDS011;55720;51.972;4.624;2023-07-29T14:13:02;2.67;;;0.60;;
35150;SDS011;55720;51.972;4.624;2023-07-29T14:15:27;0.97;;;0.80;;
35150;SDS011;55720;51.972;4.624;2023-07-29T14:17:53;0.70;;;0.52;;
35150;SDS011;55720;51.972;4.624;2023-07-29T14:20:19;0.75;;;0.50;;
35150;SDS011;55720;51.972;4.624;2023-07-29T14:22:44;1.90;;;0.80;;
35150;SDS011;55720;51.972;4.624;2023-07-29T14:25:09;3.20;;;0.73;;
35150;SDS011;55720;51.972;4.624;2023-07-29T14:27:35;2.70;;;0.70;;
35150;SDS011;55720;51.972;4.624;2023-07-29T14:30:00;0.77;;;0.60;;
35150;SDS011;55720;51.972;4.624;2023-07-29T14:32:26;0.93;;;0.63;;
35150;SDS011;55720;51.972;4.624;2023-07-29T14:34:52;0.82;;;0.70;;
35150;SDS011;55720;51.972;4.624;2023-07-29T14:37:17;3.27;;;0.87;;
35150;SDS011;55720;51.972;4.624;2023-07-29T14:39:42;1.97;;;0.90;;
35150;SDS011;55720;51.972;4.624;2023-07-29T14:42:08;4.50;;;0.77;;
35150;SDS011;55720;51.972;4.624;2023-07-29T14:44:33;1.63;;;0.90;;
35150;SDS011;55720;51.972;4.624;2023-07-29T14:46:58;2.60;;;1.10;;